SASO2: Little River At Sasakwa, OK

Data processed at Fri Mar 09 2018 23:36


All information presented herein is the property of the government of the United States of America and may be revised or deleted at any time without prior notice.
Dissemination of this information without the expressed written consent of the Public Affairs Office, Tulsa District U.S. Army Corps of Engineers is strictly prohibited.
These data are gathered electronically and, as presented, have not undergone any form of quality control. These data are not guaranteed to be valid or correct.
Go to home page.
Go to station list.

Upstream stations:

Downstream station:
Previous Day
Next Day
Current Day
    
SHEF ID:       SASO2     Little River near Sasakwa, OK
STATION TYPE:  

                STAGE  RIV-FLOW  BAT-LOAD
                   ft       cfs      volt
              Ccp-Rev   Ccp-Rev   Ccp-Rev
(US/Central)
03/07 00:00      4.15       130     12.41
03/07 01:00      4.11       124     12.41
03/07 02:00      4.14       129     12.41
03/07 03:00      4.11       124     12.41
03/07 04:00      4.12       125     12.33
03/07 05:00      4.10       122     12.33
03/07 06:00      4.15       130     12.33
03/07 07:00      4.11       124     12.33
03/07 08:00      4.12       125     12.33
03/07 09:00      4.08       119     12.49
03/07 10:00      4.10       122     12.89
03/07 11:00      4.09       120     13.44
03/07 12:00      4.10       122     14.08
03/07 13:00      4.10       122     14.16
03/07 14:00      4.06       116     14.08
03/07 15:00      4.08       119     14.08
03/07 16:00      4.05       114     14.00
03/07 17:00      4.02       109     13.29
03/07 18:00      4.06       116     13.44
03/07 19:00      4.04       112     12.97
03/07 20:00      4.05       114     12.57
03/07 21:00      4.03       111     12.49
03/07 22:00      4.02       109     12.41
03/07 23:00      4.05       114     12.41